Terminal Aerodrome Forecast
Issued by NWS Pittsburgh, PA

Home | Current Version | Previous Version | Text Only | Print | Product List | Glossary On
Versions: 1 2 3 4 5 6 7 8 9 10 11 12 13 14 15 16 17 18 19 20 21 22 23 24 25 26 27 28 29 30 31 32 33 34
000
FTUS41 KPBZ 280527
TAFPIT
TAF
KPIT 280527Z 2806/0112 13004KT P6SM SCT080
      TEMPO 2806/2809 4SM BR
     FM281200 15005KT P6SM BKN080
     FM281800 17007KT 6SM -RA OVC050
     FM282100 18008KT 4SM -RA OVC020
     FM010000 19012KT 6SM -RA OVC010
     FM010400 20012G22KT P6SM OVC025=

USA.gov is the U.S. government's official web portal to all federal, state and local government web resources and services.